• Join FlightAware (Why Join?)
  • Login
  • US Flag 
01:22AM EST


 

Airport Tracker/Info


-or-


 

Live Flight TrackerFlight Track Log ✈ N9653B ✈ 26-Apr-2013 ✈ KBED - KMVL

Flight Track Log - Related Links

Times and Time Zones

All times are in EDT time to prevent confusion due to time zone crossing. See the N9653B flight status page for this flight to view local times or setup timezone preferences in your user account.

Time Position Orientation Groundspeed Altitude Reporting Facility
EDT Latitude Longitude Course Direction KTS MPH feet Rate Location/Type
04:35PM 42.4833 -71.2667 56° Northeast 70 81 800  Level KA90
04:36PM 42.5000 -71.2333 56° Northeast 83 96 1,700 540 Climbing KA90
04:37PM 42.5167 -71.2167 36° Northeast 76 87 2,200 600 Climbing KA90
04:38PM 42.5333 -71.1833 56° Northeast 83 96 2,900 540 Climbing KA90
04:39PM 42.5500 -71.1833 360° North 100 115 3,400 480 Climbing KA90
04:40PM 42.5833 -71.1833 360° North 102 117 4,000 540 Climbing KA90
04:41PM 42.6000 -71.2000 324° Northwest 101 116 4,500 540 Climbing KA90
04:42PM 42.6333 -71.2167 340° North 104 120 5,100 540 Climbing KA90
04:43PM 42.6500 -71.2500 304° West 106 122 5,600 420 Climbing KA90
04:44PM 42.6833 -71.2667 340° North 113 130 5,900 60 Climbing KA90
04:45PM 42.7167 -71.2833 340° North 120 138 5,800 -60 Descending KA90
04:46PM 42.7333 -71.3000 324° Northwest 118 136 5,800  Level KA90
04:47PM 42.7667 -71.3333 324° Northwest 111 128 5,900  Climbing KA90
04:48PM 42.8000 -71.3500 340° North 117 135 5,800 -60 Descending KA90
04:49PM 42.8333 -71.3667 340° North 118 136 5,800  Level KA90
04:50PM 42.8500 -71.3833 324° Northwest 119 137 5,900  Climbing KA90
04:51PM 42.8833 -71.3833 360° North 122 140 5,900  Level KA90
04:52PM 42.9167 -71.4000 340° North 123 142 5,900  Level KA90
04:53PM 42.9500 -71.4333 324° Northwest 116 133 5,900  Level KA90
04:54PM 42.9667 -71.4500 324° Northwest 133 153 5,900  Level KA90
04:55PM 43.0000 -71.4833 324° Northwest 119 137 6,000  Climbing KA90
04:56PM 43.0333 -71.5000 340° North 117 135 5,900 -60 Descending KA90
04:57PM 43.0500 -71.5167 324° Northwest 116 133 5,900  Level KA90
04:58PM 43.0833 -71.5500 324° Northwest 123 142 6,000  Climbing KA90
04:59PM 43.1000 -71.5833 304° West 136 157 6,000 -120 Level KA90
05:00PM 43.1333 -71.6000 340° North 143 165 5,800 -60 Descending KA90
05:01PM 43.1667 -71.6167 340° North 120 138 5,900  Climbing KA90
05:02PM 43.2000 -71.6167 360° North 119 137 5,800  Descending KA90
05:03PM 43.2333 -71.6333 340° North 111 128 5,900  Climbing KA90
05:04PM 43.2583 -71.6561 326° Northwest 117 135 5,900 60 Level Boston Center
05:05PM 43.2836 -71.6728 334° Northwest 122 140 6,100  Climbing Boston Center
05:06PM 43.3211 -71.6953 336° Northwest 127 146 6,000 -120 Descending Boston Center
05:07PM 43.3422 -71.7150 326° Northwest 122 140 5,900  Descending Boston Center
05:08PM 43.3694 -71.7433 323° Northwest 111 128 6,000  Climbing Boston Center
05:09PM 43.3986 -71.7628 334° Northwest 128 147 6,000  Level Boston Center
05:10PM 43.4303 -71.7911 327° Northwest 134 154 6,000  Level Boston Center
05:11PM 43.4594 -71.8022 345° North 134 154 6,000  Level Boston Center
05:12PM 43.4908 -71.8247 333° Northwest 119 137 6,000  Level Boston Center
05:13PM 43.5158 -71.8444 330° Northwest 112 129 6,000  Level Boston Center
05:14PM 43.5472 -71.8700 329° Northwest 112 129 6,000  Level Boston Center
05:15PM 43.5703 -71.8928 324° Northwest 117 135 6,100 120 Climbing Boston Center
05:16PM 43.6039 -71.9183 331° Northwest 123 142 6,300 360 Climbing Boston Center
05:17PM 43.6289 -71.9411 327° Northwest 117 135 6,900 300 Climbing Boston Center
05:18PM 43.6539 -71.9636 327° Northwest 112 129 7,000 60 Climbing Boston Center
05:19PM 43.6833 -71.9894 328° Northwest 112 129 7,100  Climbing Boston Center
05:20PM 43.7125 -72.0092 334° Northwest 118 136 7,000 -60 Descending Boston Center
05:21PM 43.7375 -72.0292 330° Northwest 118 136 7,000  Level Boston Center
05:22PM 43.7689 -72.0492 335° Northwest 118 136 7,100  Climbing Boston Center
05:23PM 43.7981 -72.0633 341° North 113 130 7,000 -60 Descending Boston Center
05:24PM 43.8275 -72.0803 337° Northwest 113 130 7,000  Level Boston Center
05:25PM 43.8567 -72.1033 330° Northwest 113 130 7,000  Level Boston Center
05:26PM 43.8836 -72.1147 343° North 113 130 7,000  Level Boston Center
05:27PM 43.9108 -72.1317 336° Northwest 113 130 7,000  Level Boston Center
05:28PM 43.9400 -72.1575 327° Northwest 113 130 7,100 60 Climbing Boston Center
05:29PM 43.9672 -72.1806 329° Northwest 113 130 7,200  Climbing Boston Center
05:30PM 43.9964 -72.2006 334° Northwest 118 136 7,100 -60 Descending Boston Center
05:31PM 44.0236 -72.2236 329° Northwest 118 136 7,100  Level Boston Center
05:32PM 44.0467 -72.2494 321° Northwest 118 136 7,100 -60 Level Boston Center
05:33PM 44.0758 -72.2753 328° Northwest 118 136 7,000 -60 Descending Boston Center
05:34PM 44.1069 -72.2956 335° Northwest 118 136 7,000  Level Boston Center
05:35PM 44.1383 -72.2983 356° North 118 136 7,100  Climbing Boston Center
05:36PM 44.1675 -72.3128 340° North 118 136 7,100 -120 Level Boston Center
05:37PM 44.2008 -72.3272 343° North 118 136 6,900 -180 Descending Boston Center
05:38PM 44.2322 -72.3358 349° North 118 136 6,800 -60 Descending Boston Center
05:39PM 44.2572 -72.3417 351° North 106 122 6,800 -60 Level Boston Center
05:40PM 44.2925 -72.3503 350° North 106 122 6,700 -60 Descending Boston Center
05:41PM 44.3239 -72.3589 349° North 106 122 6,700  Level Boston Center
05:42PM 44.3531 -72.3703 344° North 106 122 6,700  Level Boston Center
05:43PM 44.3842 -72.3819 345° North 106 122 6,700  Level Boston Center
05:44PM 44.4133 -72.3936 344° North 106 122 6,700  Level Boston Center
05:45PM 44.4467 -72.4081 343° North 106 122 6,700 -180 Level Boston Center
05:46PM 44.4739 -72.4256 335° Northwest 106 122 6,400 -360 Descending Boston Center
05:47PM 44.5072 -72.4431 339° North 112 129 6,000 -420 Descending Boston Center
05:49PM 44.5531 -72.4526 352° North  Level FlightAware Approximate